WetterOnline ( https://www.wetteronline.de )

Wetter aktuell Tetenbüll

Aktuelles Wetter: Heide/Elpersbüttel (5m)

6-stündlich | Neueste Meldungen
Ortszeit Temperatur Wetter
Do, 18.07. 2:00 14.8° C wolkig
Mi, 17.07. 20:00 16.9° C bedeckt
Mi, 17.07. 14:00 17.9° C bedeckt
Mi, 17.07. 8:00 16.6° C Sprühregen
Mi, 17.07. 2:00 15.9° C Regen
Di, 16.07. 20:00 17.5° C wolkig
Di, 16.07. 14:00 22.0° C fast wolkenlos
Di, 16.07. 8:00 16.7° C bedeckt
Ortszeit Temperatur Wetter
Do, 18.07. 6:30 15.8° C bedeckt
Do, 18.07. 6:20 15.8° C bedeckt
Do, 18.07. 6:10 15.7° C bedeckt
Do, 18.07. 6:00 15.6° C bedeckt
Do, 18.07. 5:50 15.6° C bedeckt
Do, 18.07. 5:40 15.5° C bedeckt
Do, 18.07. 5:30 15.1° C bedeckt
Do, 18.07. 5:00 15.0° C bewölkt
Do, 18.07. 4:30 15.1° C bewölkt
Do, 18.07. 4:00 14.7° C bedeckt
Do, 18.07. 3:30 14.7° C bedeckt
Ortszeit Relative Feuchte Sichtweite
Do, 18.07. 2:00 86% 35 km
Mi, 17.07. 20:00 79% 50 km
Mi, 17.07. 14:00 82% 50 km
Mi, 17.07. 8:00 92% 30 km
Mi, 17.07. 2:00 92% 40 km
Di, 16.07. 20:00 82% 30 km
Di, 16.07. 14:00 64% 50 km
Di, 16.07. 8:00 92% 35 km
Ortszeit Relative Feuchte Sichtweite
Do, 18.07. 6:30 86% 35 km
Do, 18.07. 6:20 86% -
Do, 18.07. 6:10 85% -
Do, 18.07. 6:00 81% 45 km
Do, 18.07. 5:50 81% -
Do, 18.07. 5:40 83% -
Do, 18.07. 5:30 88% 35 km
Do, 18.07. 5:00 90% 29 km
Do, 18.07. 4:30 86% 40 km
Do, 18.07. 4:00 89% 40 km
Do, 18.07. 3:30 90% 30 km
Ortszeit Niederschlagsmenge Niederschlagsart
Do, 18.07. 2:00 0.0 l/m2 in 6 Std. -
Mi, 17.07. 20:00 0.1 l/m2 in 12 Std. Sprühregen
Mi, 17.07. 14:00 0.1 l/m2 in 6 Std. Regen
Mi, 17.07. 8:00 2 l/m2 in 12 Std. Regen
Mi, 17.07. 2:00 0.2 l/m2 in 6 Std. Regen
Di, 16.07. 20:00 0.1 l/m2 in 12 Std. Regen
Di, 16.07. 14:00 0.1 l/m2 in 6 Std. Regen
Di, 16.07. 8:00 1 l/m2 in 12 Std. Regen
Ortszeit Niederschlagsmenge Niederschlagsart
Do, 18.07. 6:30 0.0 l/m2 in 30 Min -
Do, 18.07. 6:20 keine Meldung -
Do, 18.07. 6:10 keine Meldung -
Do, 18.07. 6:00 0.0 l/m2 in 1 Std. -
Do, 18.07. 5:50 keine Meldung -
Do, 18.07. 5:40 keine Meldung -
Do, 18.07. 5:30 0.0 l/m2 in 30 Min -
Do, 18.07. 5:00 0.0 l/m2 in 1 Std. -
Do, 18.07. 4:30 0.0 l/m2 in 30 Min -
Do, 18.07. 4:00 0.0 l/m2 in 1 Std. -
Do, 18.07. 3:30 0.0 l/m2 in 30 Min -
Ortszeit Stärke Spitze Richtung
km/h Bft. km/h Grad Sektor
Do, 18.07. 2:00 9 2 33 280° W
Mi, 17.07. 20:00 26 4 50 290° W
Mi, 17.07. 14:00 30 5 52 270° W
Mi, 17.07. 8:00 29 5 43 270° W
Mi, 17.07. 2:00 9 2 22 180° S
Di, 16.07. 20:00 22 4 43 300° NW
Di, 16.07. 14:00 28 4 43 230° SW
Di, 16.07. 8:00 4 1 25 140° SO
Ortszeit Stärke Spitze Richtung
km/h Bft. km/h Grad Sektor
Do, 18.07. 6:30 7 2 14 270° W
Do, 18.07. 6:20 7 2 - 270° W
Do, 18.07. 6:10 7 2 - 260° W
Do, 18.07. 6:00 13 3 19 280° W
Do, 18.07. 5:50 13 3 - 280° W
Do, 18.07. 5:40 11 2 - 280° W
Do, 18.07. 5:30 7 2 11 270° W
Do, 18.07. 5:00 6 1 13 230° SW
Do, 18.07. 4:30 7 2 14 250° W
Do, 18.07. 4:00 4 1 7 230° SW
Do, 18.07. 3:30 2 1 6 340° N
Ortszeit Untergrenze Bedeckung Gattung
total tief tief mittel hoch
Do, 18.07. 2:00 480 m 5/8 5/8 - - -
Mi, 17.07. 20:00 630 m 8/8 8/8 - - -
Mi, 17.07. 14:00 300 m 8/8 8/8 - - -
Mi, 17.07. 8:00 300 m 8/8 8/8 - - -
Mi, 17.07. 2:00 1140 m 8/8 8/8 - - -
Di, 16.07. 20:00 930 m 7/8 1/8 - - -
Di, 16.07. 14:00 1230 m 1/8 1/8 - - -
Di, 16.07. 8:00 1800 m 8/8 8/8 - - -
Ortszeit Bedeckungsgrad in Achtel und Wolkenuntergrenze
Do, 18.07. 6:30 8(510m)
Do, 18.07. 6:20 8(510m)
Do, 18.07. 6:10 8
Do, 18.07. 6:00 8(510m)
Do, 18.07. 5:50 8(510m)
Do, 18.07. 5:40 8
Do, 18.07. 5:30 8(510m)
Do, 18.07. 5:00 7(480m)
Do, 18.07. 4:30 7(450m)
Do, 18.07. 4:00 8(450m)
Do, 18.07. 3:30 8(450m)
Ortszeit Luftdruck NN (hPa) Tendenz (hPa in 3 Std.)
Do, 18.07. 2:00 1022 + 0,2
Mi, 17.07. 20:00 1021 + 1,3
Mi, 17.07. 14:00 1017 + 2,2
Mi, 17.07. 8:00 1013 + 1,7
Mi, 17.07. 2:00 1012 + 0,3
Di, 16.07. 20:00 1011 + 0,9
Di, 16.07. 14:00 1010 + 1,3
Di, 16.07. 8:00 1008 - 0,4
Ortszeit Luftdruck NN (hPa) Tendenz (hPa in 3 Std.)
Do, 18.07. 6:30 1023 + 0,5
Do, 18.07. 6:20 1023 keine Meldung
Do, 18.07. 6:10 1023 keine Meldung
Do, 18.07. 6:00 1023 + 0,4
Do, 18.07. 5:50 1023 keine Meldung
Do, 18.07. 5:40 1023 keine Meldung
Do, 18.07. 5:30 1023 + 0,1
Do, 18.07. 5:00 1023 + 0,4
Do, 18.07. 4:30 1023 + 0,5
Do, 18.07. 4:00 1023 + 0,2
Do, 18.07. 3:30 1023 + 0,2
Ortszeit Schneehöhe (cm)
Do, 18.07. 2:00 0
Mi, 17.07. 20:00 0
Mi, 17.07. 14:00 0
Mi, 17.07. 8:00 0
Mi, 17.07. 2:00 0
Di, 16.07. 20:00 0
Di, 16.07. 14:00 0
Di, 16.07. 8:00 0
Ortszeit Schneehöhe (cm)
Do, 18.07. 6:30 0
Do, 18.07. 6:20 0
Do, 18.07. 6:10 -
Do, 18.07. 6:00 0
Do, 18.07. 5:50 0
Do, 18.07. 5:40 -
Do, 18.07. 5:30 0
Do, 18.07. 5:00 0
Do, 18.07. 4:30 0
Do, 18.07. 4:00 0
Do, 18.07. 3:30 0
Link zu dieser Seite / Seite empfehlen

Das Wetter in ...